createdAt,value
2022-08-22T00:00:34.913Z,6.45
2022-08-22T00:03:07.177Z,6.40
2022-08-22T00:03:28.810Z,5.43
2022-08-22T00:06:17.779Z,5.57
2022-08-22T00:09:01.728Z,4.53
2022-08-22T00:11:42.133Z,7.15
2022-08-22T00:14:20.347Z,6.43
2022-08-22T00:16:58.703Z,5.43
2022-08-22T00:19:45.576Z,5.82
2022-08-22T00:22:23.475Z,6.70
2022-08-22T00:25:00.621Z,6.90
2022-08-22T00:27:36.180Z,8.40
2022-08-22T00:30:10.719Z,7.68
2022-08-22T00:32:45.944Z,4.88
2022-08-22T00:35:26.432Z,5.57
2022-08-22T00:38:05.507Z,5.35
2022-08-22T00:40:55.292Z,4.60
2022-08-22T00:43:57.432Z,4.75
2022-08-22T00:46:44.986Z,6.07
2022-08-22T00:49:32.895Z,5.03
2022-08-22T00:52:42.391Z,7.22
2022-08-22T00:55:39.475Z,6.55
2022-08-22T00:58:39.257Z,7.03
2022-08-22T01:01:12.356Z,7.10
2022-08-22T01:04:01.059Z,4.88
2022-08-22T01:06:42.813Z,6.07
2022-08-22T01:09:31.348Z,6.10
2022-08-22T01:12:25.624Z,7.18
2022-08-22T01:15:01.127Z,6.93
2022-08-22T01:18:04.251Z,7.30
2022-08-22T01:21:20.763Z,7.78
2022-08-22T01:24:25.937Z,8.73
2022-08-22T01:27:28.555Z,6.03
2022-08-22T01:30:20.132Z,6.07
2022-08-22T01:33:26.188Z,8.38
2022-08-22T01:36:21.500Z,7.72
2022-08-22T01:39:10.967Z,5.70
2022-08-22T01:42:05.226Z,4.63
2022-08-22T01:45:07.843Z,8.05
2022-08-22T01:47:43.216Z,6.32
2022-08-22T01:50:24.085Z,7.72
2022-08-22T01:53:04.298Z,7.03
2022-08-22T01:55:38.784Z,7.43
2022-08-22T01:58:19.735Z,6.53
2022-08-22T02:01:05.938Z,5.22
2022-08-22T02:03:40.548Z,7.13
2022-08-22T02:06:16.356Z,5.15
2022-08-22T02:08:56.190Z,7.10
2022-08-22T02:11:41.531Z,7.07
2022-08-22T02:14:25.708Z,5.15
2022-08-22T02:16:58.863Z,4.95
2022-08-22T02:19:38.160Z,4.70
2022-08-22T02:22:20.511Z,6.57
2022-08-22T02:25:04.554Z,5.43
2022-08-22T02:27:48.315Z,5.78
2022-08-22T02:30:21.677Z,6.45
2022-08-22T02:33:08.320Z,5.97
2022-08-22T02:35:45.148Z,6.30
2022-08-22T02:38:28.198Z,5.30
2022-08-22T02:41:12.716Z,6.75
2022-08-22T02:43:51.224Z,6.20
2022-08-22T02:46:28.675Z,5.10
2022-08-22T02:49:09.068Z,6.88
2022-08-22T02:51:47.773Z,6.05
2022-08-22T02:54:25.339Z,7.80
2022-08-22T02:57:05.217Z,5.95
2022-08-22T02:59:42.375Z,5.07
2022-08-22T03:02:31.368Z,3.80
2022-08-22T03:05:04.238Z,6.20
2022-08-22T03:07:45.188Z,7.78
2022-08-22T03:10:23.171Z,5.93
2022-08-22T03:13:05.865Z,4.10
2022-08-22T03:15:48.449Z,4.70
2022-08-22T03:18:25.711Z,6.10
2022-08-22T03:20:59.599Z,4.22
2022-08-22T03:23:39.551Z,4.05
2022-08-22T03:26:16.200Z,4.35
2022-08-22T03:29:00.146Z,4.05
2022-08-22T03:31:31.821Z,5.50
2022-08-22T03:34:22.483Z,5.40
2022-08-22T03:37:07.533Z,4.47
2022-08-22T03:40:02.869Z,4.30
2022-08-22T03:43:03.344Z,5.20
2022-08-22T03:46:13.059Z,4.50
2022-08-22T03:49:08.238Z,3.65
2022-08-22T03:51:52.044Z,5.03
2022-08-22T03:55:03.575Z,3.95
2022-08-22T03:58:04.398Z,5.65
2022-08-22T04:01:03.644Z,7.40
2022-08-22T04:04:05.354Z,4.65
2022-08-22T04:06:56.358Z,4.47
2022-08-22T04:09:47.612Z,5.95
2022-08-22T04:12:42.384Z,5.78
2022-08-22T04:15:48.831Z,6.53
2022-08-22T04:18:51.339Z,6.40
2022-08-22T04:21:51.088Z,3.55
2022-08-22T04:24:37.026Z,5.10
2022-08-22T04:27:15.496Z,4.85
2022-08-22T04:29:51.818Z,5.80
2022-08-22T04:32:28.137Z,6.20
2022-08-22T04:35:02.071Z,6.05
2022-08-22T04:37:42.115Z,6.65
2022-08-22T04:40:19.946Z,6.40
2022-08-22T04:42:55.739Z,5.50
2022-08-22T04:45:30.103Z,5.93
2022-08-22T04:48:06.749Z,5.22
2022-08-22T04:50:44.404Z,4.40
2022-08-22T04:53:33.854Z,5.05
2022-08-22T04:56:10.720Z,6.13
2022-08-22T04:58:47.725Z,6.28
2022-08-22T05:01:21.011Z,7.20
2022-08-22T05:03:58.168Z,5.57
2022-08-22T05:06:32.031Z,8.75
2022-08-22T05:09:12.976Z,6.95
2022-08-22T05:11:46.546Z,5.28
2022-08-22T05:14:21.536Z,5.55
2022-08-22T05:16:56.868Z,6.05
2022-08-22T05:19:32.292Z,8.50
2022-08-22T05:22:03.528Z,6.07
2022-08-22T05:24:40.339Z,5.60
2022-08-22T05:27:14.707Z,6.38
2022-08-22T05:29:49.640Z,6.75
2022-08-22T05:32:27.551Z,4.13
2022-08-22T05:35:01.360Z,4.38
2022-08-22T05:37:40.220Z,5.95
2022-08-22T05:40:20.339Z,4.93
2022-08-22T05:42:50.743Z,7.43
2022-08-22T05:45:21.967Z,5.25
2022-08-22T05:47:55.392Z,5.70
2022-08-22T05:50:37.162Z,4.68
2022-08-22T05:53:12.531Z,4.63
2022-08-22T05:55:58.219Z,4.40
2022-08-22T05:58:51.216Z,5.13
2022-08-22T06:01:30.366Z,5.20
2022-08-22T06:04:06.999Z,3.85
2022-08-22T06:06:42.834Z,4.40
2022-08-22T06:09:20.774Z,4.80
2022-08-22T06:12:00.742Z,5.32
2022-08-22T06:14:36.119Z,3.70
2022-08-22T06:17:14.948Z,4.35
2022-08-22T06:19:49.702Z,6.63
2022-08-22T06:22:23.859Z,4.95
2022-08-22T06:24:57.655Z,3.58
2022-08-22T06:27:32.043Z,3.88
2022-08-22T06:30:04.309Z,6.15
2022-08-22T06:32:59.051Z,5.28
2022-08-22T06:35:52.079Z,4.68
2022-08-22T06:38:23.173Z,4.30
2022-08-22T06:40:56.199Z,6.13
2022-08-22T06:43:29.364Z,5.70
2022-08-22T06:45:59.474Z,5.40
2022-08-22T06:48:29.901Z,4.50
2022-08-22T06:51:01.666Z,5.28
2022-08-22T06:53:42.344Z,5.53
2022-08-22T06:56:24.009Z,5.55
2022-08-22T06:59:02.139Z,6.75
2022-08-22T07:01:36.653Z,7.28
2022-08-22T07:04:09.023Z,5.90
2022-08-22T07:06:41.616Z,8.73
2022-08-22T07:09:22.308Z,5.85
2022-08-22T07:11:53.269Z,6.90
2022-08-22T07:14:33.096Z,8.15
2022-08-22T07:17:05.426Z,5.72
2022-08-22T07:19:38.613Z,7.90
2022-08-22T07:22:17.618Z,6.15
2022-08-22T07:24:53.634Z,6.97
2022-08-22T07:27:39.160Z,5.63
2022-08-22T07:30:15.617Z,3.72
2022-08-22T07:33:25.178Z,4.45
2022-08-22T07:35:55.964Z,6.22
2022-08-22T07:38:35.436Z,5.03
2022-08-22T07:41:13.135Z,8.32
2022-08-22T07:43:47.811Z,5.65
2022-08-22T07:46:31.549Z,6.07
2022-08-22T07:49:12.058Z,7.47
2022-08-22T07:51:46.800Z,8.50
2022-08-22T07:54:21.261Z,8.07
2022-08-22T07:56:59.767Z,5.82
2022-08-22T07:59:31.979Z,6.07
2022-08-22T08:02:09.896Z,8.90
2022-08-22T08:04:41.686Z,3.92
2022-08-22T08:07:14.543Z,7.60
2022-08-22T08:09:48.763Z,6.15
2022-08-22T08:12:22.133Z,5.43
2022-08-22T08:14:56.810Z,4.32
2022-08-22T08:17:32.563Z,5.82
2022-08-22T08:20:08.862Z,6.85
2022-08-22T08:22:40.880Z,5.93
2022-08-22T08:25:15.157Z,7.22
2022-08-22T08:27:57.581Z,8.10
2022-08-22T08:30:39.551Z,10.35
2022-08-22T08:33:25.788Z,5.55
2022-08-22T08:36:05.764Z,7.10
2022-08-22T08:38:43.480Z,6.18
2022-08-22T08:41:41.573Z,6.53
2022-08-22T08:44:24.005Z,7.00
2022-08-22T08:47:20.780Z,6.95
2022-08-22T08:50:20.842Z,7.75
2022-08-22T08:53:31.260Z,8.40
2022-08-22T08:56:06.840Z,4.45
2022-08-22T08:58:50.833Z,10.05
2022-08-22T09:01:41.235Z,8.20
2022-08-22T09:04:42.088Z,5.47
2022-08-22T09:07:38.013Z,4.63
2022-08-22T09:10:32.836Z,6.18
2022-08-22T09:13:44.461Z,7.75
2022-08-22T09:16:47.257Z,6.50
2022-08-22T09:19:52.525Z,6.53
2022-08-22T09:22:50.064Z,6.70
2022-08-22T09:25:29.662Z,4.82
2022-08-22T09:28:17.311Z,6.40
2022-08-22T09:34:24.144Z,7.47
2022-08-22T09:37:08.017Z,6.63
2022-08-22T09:39:52.751Z,7.32
2022-08-22T09:42:33.733Z,7.75
2022-08-22T09:45:33.869Z,7.03
2022-08-22T09:48:09.820Z,8.05
2022-08-22T09:50:54.561Z,7.20
2022-08-22T09:53:46.713Z,8.25
2022-08-22T09:56:26.620Z,8.63
2022-08-22T09:59:06.586Z,6.13
2022-08-22T10:01:42.964Z,7.60
2022-08-22T10:04:42.017Z,8.63
2022-08-22T10:07:31.225Z,7.22
2022-08-22T10:10:08.968Z,7.80
2022-08-22T10:12:53.145Z,4.57
2022-08-22T10:15:33.222Z,5.28
2022-08-22T10:18:17.393Z,8.02
2022-08-22T10:20:58.864Z,7.63
2022-08-22T10:23:35.853Z,6.15
2022-08-22T10:26:22.950Z,7.45
2022-08-22T10:29:05.243Z,6.25
2022-08-22T10:31:57.079Z,3.78
2022-08-22T10:34:35.633Z,6.15
2022-08-22T10:37:15.084Z,6.20
2022-08-22T10:39:49.650Z,5.97
2022-08-22T10:42:31.249Z,7.10
2022-08-22T10:45:23.944Z,5.85
2022-08-22T10:48:26.094Z,5.20
2022-08-22T10:51:02.230Z,5.32
2022-08-22T10:53:42.916Z,5.47
2022-08-22T10:56:16.564Z,7.65
2022-08-22T10:58:56.739Z,10.27
2022-08-22T11:01:37.490Z,6.75
2022-08-22T11:04:19.893Z,7.10
2022-08-22T11:07:12.922Z,6.30
2022-08-22T11:09:45.753Z,5.30
2022-08-22T11:12:28.245Z,7.75
2022-08-22T11:15:12.669Z,6.80
2022-08-22T11:18:22.370Z,6.50
2022-08-22T11:21:02.025Z,7.18
2022-08-22T11:23:48.414Z,5.72
2022-08-22T11:26:41.674Z,7.65
2022-08-22T11:29:44.201Z,5.45
2022-08-22T11:32:19.473Z,5.60
2022-08-22T11:34:58.834Z,6.90
2022-08-22T11:37:53.770Z,6.72
2022-08-22T11:40:35.169Z,6.43
2022-08-22T11:43:25.918Z,6.30
2022-08-22T11:46:00.929Z,5.80
2022-08-22T11:48:48.645Z,9.95
2022-08-22T11:51:34.248Z,4.30
2022-08-22T11:54:12.469Z,5.95
2022-08-22T11:56:51.381Z,5.47
2022-08-22T11:59:29.443Z,6.65
2022-08-22T12:02:06.042Z,5.85
2022-08-22T12:04:44.285Z,9.07
2022-08-22T12:07:20.981Z,6.63
2022-08-22T12:09:55.837Z,6.63
2022-08-22T12:12:33.868Z,6.15
2022-08-22T12:15:14.273Z,5.50
2022-08-22T12:18:21.787Z,3.97
2022-08-22T12:21:05.565Z,8.23
2022-08-22T12:23:55.829Z,5.63
2022-08-22T12:26:34.045Z,9.20
2022-08-22T12:29:33.439Z,8.07
2022-08-22T12:32:49.267Z,5.57
2022-08-22T12:35:32.109Z,6.93
2022-08-22T12:38:28.167Z,10.55
2022-08-22T12:41:35.404Z,6.32
2022-08-22T12:44:22.961Z,7.38
2022-08-22T12:47:09.213Z,6.22
2022-08-22T12:49:54.695Z,6.28
2022-08-22T12:52:51.857Z,6.75
2022-08-22T12:55:33.424Z,5.00
2022-08-22T12:58:14.459Z,8.48
2022-08-22T13:00:52.621Z,6.95
2022-08-22T13:03:29.642Z,8.15
2022-08-22T13:06:02.497Z,8.35
2022-08-22T13:08:37.149Z,4.40
2022-08-22T13:11:22.332Z,10.07
2022-08-22T13:13:57.680Z,7.65
2022-08-22T13:16:40.572Z,6.05
2022-08-22T13:19:22.402Z,7.13
2022-08-22T13:21:57.948Z,7.40
2022-08-22T13:24:38.883Z,5.90
2022-08-22T13:27:13.081Z,4.95
2022-08-22T13:29:50.330Z,6.75
2022-08-22T13:32:29.525Z,4.93
2022-08-22T13:35:01.102Z,9.70
2022-08-22T13:37:37.343Z,10.27
2022-08-22T13:40:11.682Z,10.35
2022-08-22T13:42:49.164Z,12.40
2022-08-22T13:45:24.709Z,5.57
2022-08-22T13:48:03.603Z,7.10
2022-08-22T13:50:53.942Z,7.50
2022-08-22T13:53:36.510Z,7.78
2022-08-22T13:56:15.975Z,6.53
2022-08-22T13:58:49.643Z,6.78
2022-08-22T14:01:28.773Z,9.02
2022-08-22T14:04:32.238Z,7.45
2022-08-22T14:07:23.817Z,7.60
2022-08-22T14:09:59.212Z,6.75
2022-08-22T14:12:50.143Z,5.18
2022-08-22T14:15:26.196Z,4.72
2022-08-22T14:18:04.911Z,6.78
2022-08-22T14:20:40.320Z,10.57
2022-08-22T14:23:13.491Z,7.65
2022-08-22T14:25:45.912Z,5.68
2022-08-22T14:28:27.838Z,7.22
2022-08-22T14:31:03.776Z,9.35
2022-08-22T14:33:39.976Z,7.03
2022-08-22T14:36:22.089Z,7.50
2022-08-22T14:38:57.904Z,7.28
2022-08-22T14:41:56.230Z,7.57
2022-08-22T14:44:28.245Z,8.13
2022-08-22T14:47:02.255Z,7.20
2022-08-22T14:49:49.698Z,10.88
2022-08-22T14:52:40.568Z,10.18
2022-08-22T14:55:23.604Z,7.88
2022-08-22T14:57:57.691Z,6.40
2022-08-22T15:00:31.649Z,7.32
2022-08-22T15:03:14.984Z,10.80
2022-08-22T15:05:48.784Z,5.72
2022-08-22T15:08:29.506Z,8.52
2022-08-22T15:11:26.020Z,5.68
2022-08-22T15:14:02.494Z,8.18
2022-08-22T15:16:36.134Z,5.53
2022-08-22T15:19:25.411Z,5.55
2022-08-22T15:22:13.681Z,9.30
2022-08-22T15:24:56.338Z,5.70
2022-08-22T15:27:28.573Z,6.60
2022-08-22T15:30:01.457Z,6.28
2022-08-22T15:32:41.729Z,8.43
2022-08-22T15:35:17.817Z,9.63
2022-08-22T15:38:00.039Z,8.80
2022-08-22T15:40:41.519Z,13.40
2022-08-22T15:43:23.082Z,7.82
2022-08-22T15:45:55.643Z,8.45
2022-08-22T15:48:32.399Z,9.23
2022-08-22T15:51:09.411Z,8.02
2022-08-22T15:54:13.151Z,8.52
2022-08-22T15:57:18.899Z,8.18
2022-08-22T15:59:59.132Z,6.18
2022-08-22T16:02:35.304Z,8.65
2022-08-22T16:05:24.489Z,6.85
2022-08-22T16:08:04.407Z,12.13
2022-08-22T16:10:40.726Z,11.18
2022-08-22T16:13:39.707Z,9.40
2022-08-22T16:16:12.717Z,6.57
2022-08-22T16:19:12.745Z,9.27
2022-08-22T16:22:08.720Z,12.13
2022-08-22T16:25:16.876Z,9.05
2022-08-22T16:27:59.178Z,5.70
2022-08-22T16:30:42.104Z,8.98
2022-08-22T16:33:18.443Z,10.90
2022-08-22T16:36:24.162Z,7.47
2022-08-22T16:38:57.791Z,10.52
2022-08-22T16:41:34.632Z,8.70
2022-08-22T16:44:48.168Z,8.75
2022-08-22T16:47:23.267Z,6.35
2022-08-22T16:50:00.560Z,9.05
2022-08-22T16:52:56.903Z,9.10
2022-08-22T16:55:52.013Z,9.82
2022-08-22T16:58:57.865Z,9.10
2022-08-22T17:01:59.342Z,9.63
2022-08-22T17:04:40.319Z,9.00
2022-08-22T17:07:23.422Z,5.90
2022-08-22T17:10:12.521Z,11.70
2022-08-22T17:12:58.282Z,9.02
2022-08-22T17:15:37.004Z,9.15
2022-08-22T17:18:41.192Z,7.20
2022-08-22T17:21:25.445Z,7.75
2022-08-22T17:24:03.052Z,11.35
2022-08-22T17:26:47.841Z,8.52
2022-08-22T17:29:23.999Z,6.72
2022-08-22T17:31:58.153Z,10.02
2022-08-22T17:34:38.181Z,9.90
2022-08-22T17:37:24.374Z,8.35
2022-08-22T17:40:12.951Z,8.25
2022-08-22T17:42:59.014Z,6.68
2022-08-22T17:45:38.115Z,8.00
2022-08-22T17:48:15.037Z,5.20
2022-08-22T17:50:51.925Z,7.15
2022-08-22T17:53:35.156Z,7.68
2022-08-22T17:56:15.604Z,7.47
2022-08-22T17:58:52.548Z,9.13
2022-08-22T18:01:38.753Z,8.38
2022-08-22T18:04:15.052Z,9.48
2022-08-22T18:06:56.258Z,7.20
2022-08-22T18:09:38.610Z,8.35
2022-08-22T18:12:18.549Z,6.55
2022-08-22T18:14:55.467Z,5.72
2022-08-22T18:17:34.072Z,9.23
2022-08-22T18:20:10.354Z,5.18
2022-08-22T18:22:48.745Z,7.93
2022-08-22T18:25:38.790Z,5.90
2022-08-22T18:28:15.655Z,7.65
2022-08-22T18:30:59.718Z,8.07
2022-08-22T18:33:36.002Z,8.60
2022-08-22T18:36:14.259Z,7.97
2022-08-22T18:38:54.492Z,8.30
2022-08-22T18:41:34.910Z,4.82
2022-08-22T18:44:13.407Z,8.02
2022-08-22T18:46:48.208Z,8.80
2022-08-22T18:49:43.381Z,5.63
2022-08-22T18:52:38.678Z,6.88
2022-08-22T18:55:28.375Z,9.23
2022-08-22T18:58:27.915Z,7.20
2022-08-22T19:01:10.547Z,8.30
2022-08-22T19:04:03.744Z,5.80
2022-08-22T19:06:49.519Z,7.97
2022-08-22T19:09:44.126Z,6.88
2022-08-22T19:12:27.906Z,9.18
2022-08-22T19:15:21.787Z,7.20
2022-08-22T19:18:26.576Z,7.95
2022-08-22T19:21:40.542Z,4.78
2022-08-22T19:24:13.384Z,7.05
2022-08-22T19:26:47.924Z,6.18
2022-08-22T19:30:02.413Z,7.07
2022-08-22T19:33:03.609Z,7.55
2022-08-22T19:36:00.616Z,5.18
2022-08-22T19:39:09.182Z,8.52
2022-08-22T19:41:47.990Z,5.03
2022-08-22T19:44:43.625Z,7.10
2022-08-22T19:47:34.962Z,7.18
2022-08-22T19:50:14.675Z,8.52
2022-08-22T19:52:58.075Z,6.47
2022-08-22T19:55:36.852Z,7.07
2022-08-22T19:58:13.062Z,7.65
2022-08-22T20:00:55.977Z,5.13
2022-08-22T20:03:44.698Z,4.25
2022-08-22T20:06:43.519Z,7.63
2022-08-22T20:09:26.953Z,8.05
2022-08-22T20:12:08.521Z,6.95
2022-08-22T20:14:43.027Z,7.28
2022-08-22T20:17:16.240Z,7.03
2022-08-22T20:22:47.146Z,4.57
2022-08-22T20:25:42.335Z,6.63
2022-08-22T20:28:29.962Z,5.45
2022-08-22T20:31:02.392Z,5.03
2022-08-22T20:33:36.359Z,4.80
2022-08-22T20:36:27.343Z,5.35
2022-08-22T20:39:04.508Z,5.55
2022-08-22T20:41:39.874Z,6.93
2022-08-22T20:44:16.052Z,3.88
2022-08-22T20:46:58.642Z,4.70
2022-08-22T20:49:31.695Z,5.25
2022-08-22T20:52:03.706Z,4.35
2022-08-22T20:54:38.611Z,5.68
2022-08-22T20:57:16.812Z,5.15
2022-08-22T20:59:54.752Z,7.65
2022-08-22T21:02:27.747Z,14.13
2022-08-22T21:05:03.296Z,13.35
2022-08-22T21:07:35.454Z,12.60
2022-08-22T21:10:23.121Z,10.02
2022-08-22T21:13:09.702Z,10.52
2022-08-22T21:15:42.094Z,8.80
2022-08-22T21:18:13.713Z,11.10
2022-08-22T21:20:44.135Z,10.32
2022-08-22T21:23:17.161Z,9.32
2022-08-22T21:25:59.733Z,9.05
2022-08-22T21:28:32.740Z,10.45
2022-08-22T21:31:10.295Z,17.08
2022-08-22T21:33:45.670Z,12.13
2022-08-22T21:36:19.123Z,10.02
2022-08-22T21:38:52.025Z,9.43
2022-08-22T21:41:34.981Z,8.95
2022-08-22T21:44:20.755Z,4.40
2022-08-22T21:46:50.498Z,8.50
2022-08-22T21:49:25.694Z,8.55
2022-08-22T21:51:55.919Z,8.88
2022-08-22T21:54:39.861Z,11.20
2022-08-22T21:57:34.461Z,10.48
2022-08-22T22:00:06.343Z,7.22
2022-08-22T22:02:39.605Z,8.57
2022-08-22T22:05:12.687Z,4.72
2022-08-22T22:07:45.788Z,6.97
2022-08-22T22:10:19.355Z,7.78
2022-08-22T22:12:53.516Z,6.95
2022-08-22T22:15:27.342Z,7.75
2022-08-22T22:17:58.206Z,8.45
2022-08-22T22:20:29.025Z,6.88
2022-08-22T22:22:59.015Z,10.73
2022-08-22T22:25:40.127Z,9.10
2022-08-22T22:28:17.589Z,8.05
2022-08-22T22:30:53.327Z,11.63
2022-08-22T22:33:24.096Z,8.98
2022-08-22T22:35:55.451Z,8.57
2022-08-22T22:38:25.877Z,10.07
2022-08-22T22:40:56.125Z,7.50
2022-08-22T22:43:28.492Z,12.13
2022-08-22T22:45:58.220Z,15.48
2022-08-22T22:48:27.976Z,18.83
2022-08-22T22:50:57.904Z,15.23
2022-08-22T22:53:38.032Z,12.40
2022-08-22T22:56:09.844Z,11.00
2022-08-22T22:58:43.029Z,15.27
2022-08-22T23:01:13.915Z,18.92
2022-08-22T23:03:44.381Z,16.90
2022-08-22T23:06:14.893Z,18.33
2022-08-22T23:08:45.037Z,14.18
2022-08-22T23:11:15.859Z,12.93
2022-08-22T23:13:48.483Z,13.82
2022-08-22T23:16:21.771Z,15.05
2022-08-22T23:18:51.513Z,14.07
2022-08-22T23:21:24.023Z,19.40
2022-08-22T23:23:56.256Z,23.67
2022-08-22T23:26:26.481Z,25.55
2022-08-22T23:28:59.189Z,25.13
2022-08-22T23:31:32.657Z,22.30
2022-08-22T23:34:05.948Z,15.02
2022-08-22T23:36:36.151Z,9.93
2022-08-22T23:39:07.427Z,7.82
2022-08-22T23:41:38.470Z,5.75
2022-08-22T23:44:13.636Z,5.85
2022-08-22T23:46:44.473Z,7.88
2022-08-22T23:49:14.874Z,4.80
2022-08-22T23:51:45.835Z,7.55
2022-08-22T23:54:16.980Z,5.28
2022-08-22T23:56:49.079Z,3.80
2022-08-22T23:59:24.392Z,5.30
